Time;durP1;ratioP1;P1;durP2;ratioP2;P2;SDS_P1;SDS_P2;PMS_P1;PMS_P2;Temp;Humidity;BMP_temperature;BMP_pressure;BME280_temperature;BME280_humidity;BME280_pressure;Samples;Min_cycle;Max_cycle;Signal;HPM_P1;HPM_P2
2021/12/01 00:03:47;;;;;;;5.90;2.40;;;;;;;;;;7494175;39;21485;-70
2021/12/01 00:08:52;;;;;;;6.45;2.42;;;;;;;;;;7495125;39;21560;-70
2021/12/01 00:13:57;;;;;;;5.72;2.10;;;;;;;;;;7494580;39;21495;-70
2021/12/01 00:19:02;;;;;;;5.33;2.10;;;;;;;;;;7494374;39;21452;-70
2021/12/01 00:24:07;;;;;;;6.45;2.30;;;;;;;;;;7494431;39;21525;-70
2021/12/01 00:29:12;;;;;;;5.27;2.23;;;;;;;;;;7494581;39;21594;-70
2021/12/01 00:34:17;;;;;;;5.53;2.37;;;;;;;;;;7494957;39;21477;-70
2021/12/01 00:39:22;;;;;;;7.67;2.42;;;;;;;;;;7494655;39;21479;-70
2021/12/01 00:44:29;;;;;;;5.13;2.10;;;;;;;;;;7494506;39;20273;-67
2021/12/01 00:49:34;;;;;;;6.42;2.60;;;;;;;;;;7494459;39;20253;-68
2021/12/01 00:54:39;;;;;;;6.90;2.60;;;;;;;;;;7494975;39;21537;-69
2021/12/01 00:59:43;;;;;;;5.55;2.30;;;;;;;;;;7494404;39;21515;-67
2021/12/01 01:04:48;;;;;;;4.42;2.20;;;;;;;;;;7494030;39;20244;-68
2021/12/01 01:09:53;;;;;;;5.80;2.80;;;;;;;;;;7494231;39;21508;-68
2021/12/01 01:20:23;;;;;;;6.00;2.53;;;;;;;;;;7494591;39;21512;-68
2021/12/01 01:25:29;;;;;;;7.00;2.62;;;;;;;;;;7493963;39;21450;-66
2021/12/01 01:30:34;;;;;;;5.75;2.47;;;;;;;;;;7493871;39;21509;-66
2021/12/01 01:35:39;;;;;;;5.43;2.60;;;;;;;;;;7494099;39;20192;-66
2021/12/01 01:40:44;;;;;;;4.70;2.17;;;;;;;;;;7494436;39;21458;-66
2021/12/01 01:45:49;;;;;;;6.77;2.57;;;;;;;;;;7494334;39;20192;-66
2021/12/01 01:50:54;;;;;;;6.20;2.92;;;;;;;;;;7494843;39;21465;-65
2021/12/01 01:56:00;;;;;;;5.55;2.70;;;;;;;;;;7494606;39;21491;-66
2021/12/01 02:06:49;;;;;;;6.33;2.80;;;;;;;;;;7495268;39;21370;-68
2021/12/01 02:11:56;;;;;;;5.70;2.63;;;;;;;;;;7494666;39;21503;-68
2021/12/01 02:17:00;;;;;;;7.08;2.58;;;;;;;;;;7494449;39;21473;-68
2021/12/01 02:22:06;;;;;;;6.45;2.85;;;;;;;;;;7494319;39;21290;-67
2021/12/01 02:27:12;;;;;;;7.23;3.33;;;;;;;;;;7495031;39;21387;-70
2021/12/01 02:32:17;;;;;;;6.17;2.83;;;;;;;;;;7494583;39;21453;-68
2021/12/01 02:37:22;;;;;;;8.60;2.90;;;;;;;;;;7494650;39;21571;-68
2021/12/01 02:42:27;;;;;;;6.75;2.77;;;;;;;;;;7494915;39;21651;-70
2021/12/01 02:47:32;;;;;;;6.60;3.10;;;;;;;;;;7493665;39;21481;-69
2021/12/01 02:52:37;;;;;;;8.00;3.20;;;;;;;;;;7494528;39;20238;-66
2021/12/01 02:58:02;;;;;;;6.40;2.98;;;;;;;;;;7494784;39;21473;-67
2021/12/01 03:03:07;;;;;;;5.40;2.77;;;;;;;;;;7494329;39;20165;-68
2021/12/01 03:08:12;;;;;;;5.92;2.80;;;;;;;;;;7494522;39;21520;-67
2021/12/01 03:13:17;;;;;;;6.85;3.42;;;;;;;;;;7494331;39;21537;-67
2021/12/01 03:18:22;;;;;;;8.27;3.10;;;;;;;;;;7494977;39;21446;-67
2021/12/01 03:23:28;;;;;;;6.83;3.40;;;;;;;;;;7494341;39;21558;-67
2021/12/01 03:28:33;;;;;;;6.97;2.83;;;;;;;;;;7494479;39;21511;-67
2021/12/01 03:33:38;;;;;;;6.45;2.87;;;;;;;;;;7494240;39;21563;-67
2021/12/01 03:38:43;;;;;;;11.25;3.02;;;;;;;;;;7494629;39;21447;-67
2021/12/01 03:43:48;;;;;;;9.07;3.17;;;;;;;;;;7494761;39;21558;-67
2021/12/01 03:48:53;;;;;;;6.53;3.10;;;;;;;;;;7494522;39;20471;-67
2021/12/01 03:53:58;;;;;;;6.30;2.90;;;;;;;;;;7493707;39;21683;-65
2021/12/01 03:59:22;;;;;;;7.75;3.45;;;;;;;;;;7493613;39;21058;-66
2021/12/01 04:04:27;;;;;;;8.00;3.25;;;;;;;;;;7493816;39;20359;-66
2021/12/01 04:09:33;;;;;;;7.53;3.53;;;;;;;;;;7493559;39;21537;-67
2021/12/01 04:14:38;;;;;;;11.28;3.80;;;;;;;;;;7493978;39;20430;-67
2021/12/01 04:19:45;;;;;;;9.47;4.10;;;;;;;;;;7492241;39;21358;-68
2021/12/01 04:24:50;;;;;;;8.03;3.37;;;;;;;;;;7493836;39;21441;-67
2021/12/01 04:29:55;;;;;;;7.30;3.50;;;;;;;;;;7494554;39;21593;-67
2021/12/01 04:35:01;;;;;;;9.73;3.60;;;;;;;;;;7493736;39;21519;-68
2021/12/01 04:40:07;;;;;;;6.80;3.15;;;;;;;;;;7494250;39;20177;-67
2021/12/01 04:50:38;;;;;;;7.80;3.98;;;;;;;;;;7494755;39;21491;-68
2021/12/01 04:55:44;;;;;;;8.93;3.62;;;;;;;;;;7494835;39;21702;-68
2021/12/01 05:00:49;;;;;;;10.03;4.00;;;;;;;;;;7494069;39;21533;-68
2021/12/01 05:05:54;;;;;;;12.88;4.75;;;;;;;;;;7494085;39;20792;-66
2021/12/01 05:10:59;;;;;;;9.73;3.90;;;;;;;;;;7492941;39;21205;-66
2021/12/01 05:16:03;;;;;;;9.98;4.37;;;;;;;;;;7492555;39;21466;-66
2021/12/01 05:21:08;;;;;;;8.40;3.67;;;;;;;;;;7493448;39;21512;-65
2021/12/01 05:26:13;;;;;;;14.73;4.30;;;;;;;;;;7494128;39;21563;-68
2021/12/01 05:31:19;;;;;;;11.30;4.30;;;;;;;;;;7494219;39;21534;-66
2021/12/01 05:36:23;;;;;;;9.50;4.00;;;;;;;;;;7493723;39;21492;-67
2021/12/01 05:41:28;;;;;;;14.63;4.72;;;;;;;;;;7492838;39;21545;-67
2021/12/01 05:46:33;;;;;;;11.05;4.78;;;;;;;;;;7493552;39;21574;-69
2021/12/01 05:51:38;;;;;;;9.80;3.93;;;;;;;;;;7492823;39;21578;-67
2021/12/01 05:56:43;;;;;;;8.70;3.77;;;;;;;;;;7494065;39;21512;-68
2021/12/01 06:01:48;;;;;;;10.60;4.17;;;;;;;;;;7494052;39;21487;-71
2021/12/01 06:06:54;;;;;;;9.58;3.90;;;;;;;;;;7490409;39;21473;-72
2021/12/01 06:12:00;;;;;;;9.15;4.17;;;;;;;;;;7488218;39;21499;-71
2021/12/01 06:17:04;;;;;;;9.13;4.03;;;;;;;;;;7490760;39;21511;-72
2021/12/01 06:22:09;;;;;;;10.45;4.33;;;;;;;;;;7491859;39;21486;-66
2021/12/01 06:27:14;;;;;;;9.53;3.97;;;;;;;;;;7491621;39;20168;-68
2021/12/01 06:32:19;;;;;;;11.10;5.62;;;;;;;;;;7493286;39;21484;-68
2021/12/01 06:37:24;;;;;;;12.98;4.53;;;;;;;;;;7493574;39;21781;-70
2021/12/01 06:42:29;;;;;;;12.43;4.70;;;;;;;;;;7493226;39;20188;-70
2021/12/01 06:47:34;;;;;;;8.73;4.72;;;;;;;;;;7490996;39;21503;-71
2021/12/01 06:52:39;;;;;;;13.90;5.93;;;;;;;;;;7490932;39;21890;-70
2021/12/01 06:57:44;;;;;;;15.55;6.50;;;;;;;;;;7491718;39;21546;-69
2021/12/01 07:02:49;;;;;;;12.05;5.40;;;;;;;;;;7490806;39;21883;-71
2021/12/01 07:07:54;;;;;;;10.87;4.67;;;;;;;;;;7492221;39;21454;-72
2021/12/01 07:12:59;;;;;;;9.08;4.42;;;;;;;;;;7490782;39;21105;-73
2021/12/01 07:18:04;;;;;;;14.03;5.83;;;;;;;;;;7490985;39;21489;-72
2021/12/01 07:23:09;;;;;;;10.78;5.33;;;;;;;;;;7493476;39;20869;-72
2021/12/01 07:28:13;;;;;;;10.28;4.80;;;;;;;;;;7494501;39;21493;-68
2021/12/01 07:33:18;;;;;;;17.30;5.13;;;;;;;;;;7492220;39;21497;-73
2021/12/01 07:38:23;;;;;;;10.82;4.35;;;;;;;;;;7491775;39;21441;-70
2021/12/01 07:43:28;;;;;;;13.63;4.97;;;;;;;;;;7491469;39;20988;-72
2021/12/01 07:48:33;;;;;;;16.00;4.58;;;;;;;;;;7491108;39;21506;-71
2021/12/01 07:53:38;;;;;;;14.28;5.67;;;;;;;;;;7493315;39;21442;-72
2021/12/01 07:58:43;;;;;;;19.87;6.40;;;;;;;;;;7491353;39;21501;-71
2021/12/01 08:03:48;;;;;;;16.55;5.62;;;;;;;;;;7491963;39;21471;-73
2021/12/01 08:08:53;;;;;;;13.53;5.30;;;;;;;;;;7492248;39;21521;-71
2021/12/01 08:13:58;;;;;;;12.03;4.75;;;;;;;;;;7493220;39;21485;-74
2021/12/01 08:19:03;;;;;;;10.08;5.17;;;;;;;;;;7494060;39;21516;-71
2021/12/01 08:24:08;;;;;;;11.93;5.17;;;;;;;;;;7492881;39;21909;-71
2021/12/01 08:29:13;;;;;;;10.72;5.62;;;;;;;;;;7493257;39;20978;-71
2021/12/01 08:34:18;;;;;;;16.63;5.97;;;;;;;;;;7491434;39;21526;-72
2021/12/01 08:39:23;;;;;;;14.60;6.60;;;;;;;;;;7492967;39;21512;-70
2021/12/01 08:44:27;;;;;;;18.52;6.78;;;;;;;;;;7491481;39;20237;-71
2021/12/01 08:49:32;;;;;;;14.53;6.57;;;;;;;;;;7493063;39;21561;-69
2021/12/01 08:54:37;;;;;;;14.23;5.85;;;;;;;;;;7493318;39;21741;-71
2021/12/01 08:59:44;;;;;;;16.53;6.20;;;;;;;;;;7493000;39;21114;-71
2021/12/01 09:05:19;;;;;;;13.93;6.47;;;;;;;;;;7493354;39;20262;-72
2021/12/01 09:09:56;;;;;;;15.75;6.17;;;;;;;;;;7494214;39;21533;-71
2021/12/01 09:15:01;;;;;;;11.67;5.07;;;;;;;;;;7494565;39;20212;-71
2021/12/01 09:20:07;;;;;;;8.70;4.10;;;;;;;;;;7493479;39;20348;-67
2021/12/01 09:25:12;;;;;;;16.20;4.60;;;;;;;;;;7491860;39;21502;-68
2021/12/01 09:30:18;;;;;;;14.25;4.78;;;;;;;;;;7491477;39;21476;-69
2021/12/01 09:35:23;;;;;;;14.38;6.33;;;;;;;;;;7492032;39;21433;-68
2021/12/01 09:40:28;;;;;;;13.00;5.37;;;;;;;;;;7492310;39;21517;-68
2021/12/01 09:45:33;;;;;;;14.70;6.03;;;;;;;;;;7492214;39;21537;-68
2021/12/01 09:50:38;;;;;;;18.83;7.20;;;;;;;;;;7492464;39;21507;-68
2021/12/01 09:55:43;;;;;;;14.20;7.10;;;;;;;;;;7492494;39;20204;-69
2021/12/01 10:00:49;;;;;;;11.30;6.05;;;;;;;;;;7492388;39;21450;-68
2021/12/01 10:11:41;;;;;;;14.83;6.65;;;;;;;;;;7491092;39;21512;-68
2021/12/01 10:16:47;;;;;;;12.40;6.47;;;;;;;;;;7493936;39;21472;-71
2021/12/01 10:21:54;;;;;;;11.90;5.75;;;;;;;;;;7493869;39;21446;-69
2021/12/01 10:27:00;;;;;;;15.18;5.70;;;;;;;;;;7493605;39;20196;-69
2021/12/01 10:32:25;;;;;;;13.03;6.13;;;;;;;;;;7492418;39;21046;-70
2021/12/01 10:37:31;;;;;;;15.45;6.40;;;;;;;;;;7490191;39;21512;-70
2021/12/01 10:42:36;;;;;;;12.30;5.00;;;;;;;;;;7491533;39;21640;-69
2021/12/01 10:47:43;;;;;;;11.90;5.75;;;;;;;;;;7491402;39;20256;-70
2021/12/01 10:53:07;;;;;;;9.98;4.67;;;;;;;;;;7492692;39;21479;-69
2021/12/01 10:58:13;;;;;;;11.73;4.13;;;;;;;;;;7494278;39;21479;-71
2021/12/01 11:03:19;;;;;;;11.05;4.75;;;;;;;;;;7494112;39;21488;-71
2021/12/01 11:08:43;;;;;;;15.70;5.33;;;;;;;;;;7493773;39;21478;-71
2021/12/01 11:13:49;;;;;;;14.25;6.10;;;;;;;;;;7492801;39;20238;-70
2021/12/01 11:18:54;;;;;;;10.05;5.45;;;;;;;;;;7493499;39;21479;-70
2021/12/01 11:24:18;;;;;;;11.37;6.67;;;;;;;;;;7493947;39;21503;-71
2021/12/01 11:29:26;;;;;;;14.60;6.10;;;;;;;;;;7493817;39;21500;-70
2021/12/01 11:34:30;;;;;;;11.43;5.67;;;;;;;;;;7494083;39;20209;-70
2021/12/01 11:39:35;;;;;;;14.30;5.35;;;;;;;;;;7492744;39;21445;-71
2021/12/01 11:44:40;;;;;;;14.60;6.92;;;;;;;;;;7494799;39;21479;-71
2021/12/01 11:49:45;;;;;;;12.27;6.77;;;;;;;;;;7492540;39;21518;-70
2021/12/01 11:54:50;;;;;;;12.23;5.75;;;;;;;;;;7493610;39;20182;-73
2021/12/01 11:59:55;;;;;;;11.90;5.37;;;;;;;;;;7493686;39;21466;-71
2021/12/01 12:05:02;;;;;;;12.88;4.72;;;;;;;;;;7493074;39;21577;-68
2021/12/01 12:10:27;;;;;;;12.53;4.95;;;;;;;;;;7491163;39;21493;-67
2021/12/01 12:15:55;;;;;;;13.17;5.57;;;;;;;;;;7491685;39;20182;-69
2021/12/01 12:21:22;;;;;;;11.90;4.87;;;;;;;;;;7490115;39;21489;-68
2021/12/01 12:26:45;;;;;;;12.80;5.03;;;;;;;;;;7490582;39;20230;-68
2021/12/01 12:31:52;;;;;;;13.43;6.08;;;;;;;;;;7491060;39;21472;-67
2021/12/01 12:36:58;;;;;;;15.08;5.92;;;;;;;;;;7490982;39;21502;-68
2021/12/01 12:42:05;;;;;;;13.20;5.60;;;;;;;;;;7491523;39;21463;-68
2021/12/01 12:47:12;;;;;;;16.80;7.70;;;;;;;;;;7490853;39;20988;-68
2021/12/01 12:52:36;;;;;;;14.77;6.27;;;;;;;;;;7490254;39;21510;-68
2021/12/01 12:58:01;;;;;;;11.63;5.28;;;;;;;;;;7493583;39;20170;-71
2021/12/01 13:03:26;;;;;;;15.93;5.47;;;;;;;;;;7494030;39;21472;-71
2021/12/01 13:08:50;;;;;;;16.13;6.70;;;;;;;;;;7494695;39;21559;-71
2021/12/01 13:13:56;;;;;;;17.45;8.20;;;;;;;;;;7494721;39;21535;-71
2021/12/01 13:19:21;;;;;;;15.40;7.17;;;;;;;;;;7493406;39;20227;-72
2021/12/01 13:24:26;;;;;;;16.73;6.12;;;;;;;;;;7493102;39;21483;-71
2021/12/01 13:29:31;;;;;;;11.57;5.17;;;;;;;;;;7493961;39;21482;-70
2021/12/01 13:34:36;;;;;;;10.20;4.47;;;;;;;;;;7494250;39;20184;-71
2021/12/01 13:39:41;;;;;;;13.00;4.30;;;;;;;;;;7495223;39;21513;-71
2021/12/01 13:44:47;;;;;;;18.40;4.60;;;;;;;;;;7494967;39;20240;-72
2021/12/01 13:49:54;;;;;;;11.90;4.25;;;;;;;;;;7495816;39;21550;-70
2021/12/01 13:55:00;;;;;;;9.60;4.12;;;;;;;;;;7496452;39;21457;-72
2021/12/01 14:00:06;;;;;;;10.17;4.20;;;;;;;;;;7495626;39;21490;-70
2021/12/01 14:05:11;;;;;;;11.20;4.45;;;;;;;;;;7496458;39;21600;-71
2021/12/01 14:10:36;;;;;;;18.40;5.10;;;;;;;;;;7495351;39;21186;-71
2021/12/01 14:15:42;;;;;;;13.15;4.87;;;;;;;;;;7495819;39;20237;-70
2021/12/01 14:20:47;;;;;;;13.68;5.15;;;;;;;;;;7495198;39;21452;-72
2021/12/01 14:25:52;;;;;;;14.50;4.87;;;;;;;;;;7497177;39;21525;-71
2021/12/01 14:31:00;;;;;;;10.93;4.90;;;;;;;;;;7495911;39;21473;-71
2021/12/01 14:36:06;;;;;;;13.80;5.27;;;;;;;;;;7494671;39;20162;-72
2021/12/01 14:41:11;;;;;;;10.68;4.35;;;;;;;;;;7494473;39;21420;-72
2021/12/01 14:46:17;;;;;;;17.32;4.60;;;;;;;;;;7495154;39;21473;-68
2021/12/01 14:51:24;;;;;;;16.00;5.70;;;;;;;;;;7494395;39;21125;-71
2021/12/01 14:56:29;;;;;;;11.60;4.58;;;;;;;;;;7494075;39;20974;-71
2021/12/01 15:01:34;;;;;;;12.83;4.67;;;;;;;;;;7494773;39;21537;-71
2021/12/01 15:06:39;;;;;;;11.55;4.17;;;;;;;;;;7494907;39;21477;-70
2021/12/01 15:11:44;;;;;;;10.45;4.53;;;;;;;;;;7494513;39;21538;-70
2021/12/01 15:16:49;;;;;;;10.00;3.17;;;;;;;;;;7495314;39;21671;-71
2021/12/01 15:21:54;;;;;;;11.48;2.37;;;;;;;;;;7494810;39;21498;-70
2021/12/01 15:26:59;;;;;;;12.37;2.00;;;;;;;;;;7494695;39;20173;-70
2021/12/01 15:32:06;;;;;;;4.37;1.40;;;;;;;;;;7494703;39;21499;-72
2021/12/01 15:37:11;;;;;;;4.75;1.30;;;;;;;;;;7494572;39;21468;-69
2021/12/01 15:42:16;;;;;;;5.40;1.17;;;;;;;;;;7494332;39;21434;-70
2021/12/01 15:47:22;;;;;;;4.30;1.10;;;;;;;;;;7494047;39;21464;-72
2021/12/01 15:52:28;;;;;;;3.13;1.17;;;;;;;;;;7492169;39;21581;-70
2021/12/01 15:57:33;;;;;;;2.92;0.90;;;;;;;;;;7493997;39;20182;-70
2021/12/01 16:02:38;;;;;;;8.18;1.60;;;;;;;;;;7493723;39;21486;-70
2021/12/01 16:07:43;;;;;;;6.90;1.37;;;;;;;;;;7493582;39;21485;-70
2021/12/01 16:12:48;;;;;;;4.90;1.32;;;;;;;;;;7493626;39;21430;-70
2021/12/01 16:17:53;;;;;;;4.03;1.20;;;;;;;;;;7493505;39;20230;-70
2021/12/01 16:22:58;;;;;;;5.42;1.10;;;;;;;;;;7494605;39;21563;-70
2021/12/01 16:28:02;;;;;;;3.50;1.00;;;;;;;;;;7494586;39;21447;-70
2021/12/01 16:33:07;;;;;;;5.03;1.30;;;;;;;;;;7492735;39;20221;-70
2021/12/01 16:38:13;;;;;;;9.15;1.42;;;;;;;;;;7493218;39;21508;-70
2021/12/01 16:43:19;;;;;;;6.77;1.30;;;;;;;;;;7493614;39;21459;-70
2021/12/01 16:48:24;;;;;;;5.35;1.30;;;;;;;;;;7494393;39;21408;-72
2021/12/01 16:53:31;;;;;;;3.25;0.85;;;;;;;;;;7493933;39;21058;-72
2021/12/01 16:58:35;;;;;;;4.30;1.50;;;;;;;;;;7493524;39;21693;-72
2021/12/01 17:09:05;;;;;;;6.07;1.10;;;;;;;;;;7494113;39;21498;-74
2021/12/01 17:14:10;;;;;;;5.87;1.27;;;;;;;;;;7494557;39;21616;-74
2021/12/01 17:19:15;;;;;;;6.58;1.52;;;;;;;;;;7493630;39;21006;-73
2021/12/01 17:24:19;;;;;;;3.47;0.90;;;;;;;;;;7494592;39;21506;-74
2021/12/01 17:29:26;;;;;;;5.87;1.87;;;;;;;;;;7492997;39;21529;-74
2021/12/01 17:34:31;;;;;;;8.23;1.50;;;;;;;;;;7491442;39;20178;-74
2021/12/01 17:39:37;;;;;;;5.75;1.50;;;;;;;;;;7492667;39;21481;-74
2021/12/01 17:44:43;;;;;;;4.83;1.67;;;;;;;;;;7492374;39;20208;-72
2021/12/01 17:49:48;;;;;;;6.10;1.47;;;;;;;;;;7493420;39;21507;-73
2021/12/01 17:54:52;;;;;;;7.58;1.95;;;;;;;;;;7494321;39;20203;-74
2021/12/01 18:00:00;;;;;;;7.00;1.87;;;;;;;;;;7492635;39;21482;-73
2021/12/01 18:05:06;;;;;;;9.10;2.15;;;;;;;;;;7492775;39;21445;-69
2021/12/01 18:10:12;;;;;;;9.15;2.17;;;;;;;;;;7493763;39;20946;-69
2021/12/01 18:15:17;;;;;;;8.53;1.70;;;;;;;;;;7493131;39;21587;-69
2021/12/01 18:20:21;;;;;;;14.63;2.22;;;;;;;;;;7493215;39;21445;-69
2021/12/01 18:25:26;;;;;;;3.80;1.13;;;;;;;;;;7494518;39;20928;-70
2021/12/01 18:30:31;;;;;;;5.78;1.40;;;;;;;;;;7494941;39;21784;-70
2021/12/01 18:35:37;;;;;;;4.28;1.45;;;;;;;;;;7493778;39;21540;-69
2021/12/01 18:40:41;;;;;;;7.97;1.50;;;;;;;;;;7494651;39;21432;-70
2021/12/01 18:45:46;;;;;;;6.30;1.57;;;;;;;;;;7493282;39;21619;-70
2021/12/01 18:50:51;;;;;;;9.10;1.90;;;;;;;;;;7492427;39;21856;-69
2021/12/01 18:55:56;;;;;;;11.10;2.60;;;;;;;;;;7493720;39;20290;-69
2021/12/01 19:01:01;;;;;;;5.72;1.67;;;;;;;;;;7494240;39;21463;-69
2021/12/01 19:06:06;;;;;;;6.47;1.53;;;;;;;;;;7493777;39;21444;-69
2021/12/01 19:11:12;;;;;;;10.50;2.05;;;;;;;;;;7494597;39;21496;-69
2021/12/01 19:16:17;;;;;;;7.83;1.73;;;;;;;;;;7495054;39;21885;-68
2021/12/01 19:21:22;;;;;;;9.58;1.90;;;;;;;;;;7494335;39;21077;-70
2021/12/01 19:26:27;;;;;;;4.70;1.47;;;;;;;;;;7495379;39;21505;-70
2021/12/01 19:31:32;;;;;;;6.27;1.50;;;;;;;;;;7494569;39;21518;-70
2021/12/01 19:36:37;;;;;;;4.92;1.45;;;;;;;;;;7495408;39;20221;-69
2021/12/01 19:41:42;;;;;;;5.10;1.70;;;;;;;;;;7495135;39;21440;-69
2021/12/01 19:46:47;;;;;;;6.80;1.62;;;;;;;;;;7494655;39;20265;-69
2021/12/01 19:51:53;;;;;;;7.33;2.30;;;;;;;;;;7494726;39;21458;-70
2021/12/01 19:56:58;;;;;;;6.80;1.70;;;;;;;;;;7493846;39;21492;-70
2021/12/01 20:02:03;;;;;;;12.23;2.20;;;;;;;;;;7494376;39;21590;-69
2021/12/01 20:07:09;;;;;;;8.50;1.60;;;;;;;;;;7495191;39;20243;-69
2021/12/01 20:12:15;;;;;;;5.58;1.30;;;;;;;;;;7495170;39;21476;-69
2021/12/01 20:17:20;;;;;;;6.50;1.40;;;;;;;;;;7494462;39;21484;-69
2021/12/01 20:22:26;;;;;;;5.33;1.50;;;;;;;;;;7494857;39;21469;-71
2021/12/01 20:27:30;;;;;;;4.95;1.50;;;;;;;;;;7495210;39;21747;-71
2021/12/01 20:32:35;;;;;;;6.30;1.40;;;;;;;;;;7494481;39;21488;-69
2021/12/01 20:37:41;;;;;;;5.75;1.67;;;;;;;;;;7494966;39;20230;-68
2021/12/01 20:42:49;;;;;;;2.47;0.82;;;;;;;;;;7495372;39;21406;-69
2021/12/01 20:58:48;;;;;;;3.50;1.00;;;;;;;;;;7493953;39;21480;-69
2021/12/01 21:03:53;;;;;;;5.15;1.00;;;;;;;;;;7494647;39;21530;-72
2021/12/01 21:09:08;;;;;;;3.35;1.20;;;;;;;;;;7494637;39;21499;-69
2021/12/01 21:14:05;;;;;;;3.00;1.00;;;;;;;;;;7494536;39;21463;-70
2021/12/01 21:19:10;;;;;;;4.58;1.12;;;;;;;;;;7494105;39;21486;-71
2021/12/01 21:24:15;;;;;;;4.60;1.07;;;;;;;;;;7491870;39;20229;-72
2021/12/01 21:29:21;;;;;;;14.33;1.85;;;;;;;;;;7492329;39;21506;-72
2021/12/01 21:34:25;;;;;;;5.28;1.30;;;;;;;;;;7494047;39;21573;-70
2021/12/01 21:39:31;;;;;;;6.17;1.47;;;;;;;;;;7494646;39;21515;-69
2021/12/01 21:44:36;;;;;;;2.40;0.90;;;;;;;;;;7494604;39;20186;-70
2021/12/01 21:49:41;;;;;;;5.13;1.50;;;;;;;;;;7494465;39;21716;-70
2021/12/01 21:54:47;;;;;;;6.92;2.90;;;;;;;;;;7494326;39;21254;-70
2021/12/01 21:59:54;;;;;;;11.33;3.85;;;;;;;;;;7495730;39;21457;-72
2021/12/01 22:04:59;;;;;;;10.90;4.10;;;;;;;;;;7495762;39;20291;-72
2021/12/01 22:10:05;;;;;;;11.30;3.08;;;;;;;;;;7495547;39;21440;-70
2021/12/01 22:15:10;;;;;;;6.97;2.63;;;;;;;;;;7494822;39;21543;-71
2021/12/01 22:20:17;;;;;;;5.85;2.02;;;;;;;;;;7495286;39;20170;-71
2021/12/01 22:25:23;;;;;;;4.75;1.90;;;;;;;;;;7495608;39;21467;-71
2021/12/01 22:30:29;;;;;;;3.33;1.40;;;;;;;;;;7495320;39;21401;-71
2021/12/01 22:35:34;;;;;;;3.50;1.25;;;;;;;;;;7495774;39;21404;-70
2021/12/01 22:40:39;;;;;;;2.87;0.80;;;;;;;;;;7494921;39;21513;-71
2021/12/01 22:45:44;;;;;;;5.17;1.05;;;;;;;;;;7495617;39;21613;-72
2021/12/01 22:50:49;;;;;;;3.27;1.00;;;;;;;;;;7494124;39;21484;-72
2021/12/01 22:56:13;;;;;;;4.27;1.03;;;;;;;;;;7495830;39;21962;-72
2021/12/01 23:01:18;;;;;;;2.30;0.80;;;;;;;;;;7495178;39;21528;-72
2021/12/01 23:06:24;;;;;;;5.93;0.93;;;;;;;;;;7495409;39;21467;-72
2021/12/01 23:11:30;;;;;;;2.70;0.70;;;;;;;;;;7494984;39;21518;-70
2021/12/01 23:16:35;;;;;;;3.22;0.98;;;;;;;;;;7495428;39;21587;-70
2021/12/01 23:32:49;;;;;;;2.07;0.67;;;;;;;;;;7494042;39;21618;-71
2021/12/01 23:37:54;;;;;;;2.33;0.80;;;;;;;;;;7494773;39;20154;-70
2021/12/01 23:42:59;;;;;;;2.92;0.88;;;;;;;;;;7494734;39;21438;-70
2021/12/01 23:53:30;;;;;;;3.27;1.00;;;;;;;;;;7494598;39;21556;-70
2021/12/01 23:58:35;;;;;;;2.90;0.90;;;;;;;;;;7495178;39;21512;-72
